Time;durP1;ratioP1;P1;durP2;ratioP2;P2;SDS_P1;SDS_P2;PMS_P1;PMS_P2;Temp;Humidity;BMP_temperature;BMP_pressure;BME280_temperature;BME280_humidity;BME280_pressure;Samples;Min_cycle;Max_cycle;Signal;HPM_P1;HPM_P2
2022/12/03 17:26:52;;;;;;;25.90;12.75;;;5.50;86.40;;;;;;7416561;19;20328;-79
2022/12/03 17:29:22;;;;;;;31.55;15.27;;;6.00;90.10;;;;;;7404603;19;20039;-83
2022/12/03 17:31:50;;;;;;;24.80;13.82;;;6.70;87.20;;;;;;7403317;19;20656;-79
2022/12/03 17:34:19;;;;;;;182.20;18.05;;;7.20;82.70;;;;;;7404094;19;20105;-79
2022/12/03 17:36:51;;;;;;;26.08;13.80;;;7.50;81.10;;;;;;7403761;19;20018;-78
2022/12/03 17:39:22;;;;;;;45.20;13.38;;;7.80;79.80;;;;;;7419144;19;20018;-77
2022/12/03 17:41:54;;;;;;;;;;;8.00;78.10;;;;;;7404849;19;20014;-80
2022/12/03 17:44:23;;;;;;;26.10;13.38;;;8.30;77.50;;;;;;7402475;19;19911;-80
2022/12/03 17:46:52;;;;;;;28.85;12.90;;;8.40;76.50;;;;;;7402601;19;20011;-80
2022/12/03 17:49:22;;;;;;;26.23;14.02;;;8.40;75.20;;;;;;7402672;19;20010;-80
2022/12/03 17:51:51;;;;;;;26.98;13.68;;;8.50;74.50;;;;;;7402161;19;20022;-80
2022/12/03 17:54:20;;;;;;;23.83;13.00;;;8.50;73.90;;;;;;7417180;19;20018;-80
2022/12/03 17:56:49;;;;;;;27.67;12.85;;;8.50;73.40;;;;;;7403988;19;20325;-79
2022/12/03 17:59:21;;;;;;;32.22;13.25;;;8.20;72.60;;;;;;7400256;19;20025;-79
2022/12/03 18:01:51;;;;;;;27.00;14.40;;;8.30;73.40;;;;;;7402949;19;20022;-80
2022/12/03 18:04:19;;;;;;;25.08;13.90;;;8.30;73.30;;;;;;7407219;19;20014;-79
2022/12/03 18:06:48;;;;;;;32.50;16.67;;;8.30;73.40;;;;;;7404901;19;20022;-79
2022/12/03 18:09:17;;;;;;;33.17;15.85;;;8.40;73.40;;;;;;7427651;19;20118;-79
2022/12/03 18:11:46;;;;;;;28.52;15.07;;;8.40;73.20;;;;;;7406664;19;20702;-79
2022/12/03 18:14:15;;;;;;;28.85;14.95;;;8.50;73.10;;;;;;7405667;19;20781;-81
2022/12/03 18:16:47;;;;;;;33.38;16.05;;;8.60;73.00;;;;;;7405761;19;20014;-79
2022/12/03 18:19:15;;;;;;;30.50;15.02;;;8.70;72.80;;;;;;7404775;19;20022;-78
2022/12/03 18:21:44;;;;;;;29.83;15.80;;;8.70;72.70;;;;;;7406474;19;20022;-79
2022/12/03 18:24:13;;;;;;;36.15;17.75;;;8.70;72.40;;;;;;7427402;19;20021;-79
2022/12/03 18:26:42;;;;;;;78.20;14.70;;;8.70;72.50;;;;;;7406044;19;20056;-79
2022/12/03 18:29:11;;;;;;;30.98;14.70;;;8.70;72.50;;;;;;7405698;19;20027;-79
2022/12/03 18:31:40;;;;;;;28.05;14.75;;;8.70;72.00;;;;;;7403010;19;20536;-80
2022/12/03 18:34:11;;;;;;;23.25;12.77;;;8.70;72.00;;;;;;7402390;19;20062;-79
2022/12/03 18:36:40;;;;;;;;;;;8.70;71.80;;;;;;7391248;19;20663;-78
2022/12/03 18:39:15;;;;;;;24.70;12.77;;;8.80;71.70;;;;;;7394021;19;19922;-80
2022/12/03 18:41:43;;;;;;;26.80;12.63;;;8.80;71.40;;;;;;7377374;19;20015;-79
2022/12/03 18:44:13;;;;;;;26.17;12.95;;;8.80;72.30;;;;;;7380455;19;20300;-79
2022/12/03 18:46:42;;;;;;;25.00;13.43;;;8.70;71.70;;;;;;7390595;19;20031;-80
2022/12/03 18:49:13;;;;;;;25.65;12.48;;;8.60;71.00;;;;;;7385667;19;20014;-80
2022/12/03 18:51:42;;;;;;;26.50;12.85;;;8.60;71.00;;;;;;7375371;19;20022;-80
2022/12/03 18:54:14;;;;;;;28.15;14.48;;;8.50;70.80;;;;;;7398711;19;20039;-80
2022/12/03 18:56:43;;;;;;;30.40;14.50;;;8.50;71.20;;;;;;7374335;19;20021;-80
2022/12/03 18:59:12;;;;;;;34.70;15.43;;;8.40;71.10;;;;;;7376566;19;20085;-79
2022/12/03 19:01:41;;;;;;;28.05;13.63;;;8.50;71.60;;;;;;7373343;19;20026;-80
2022/12/03 19:04:13;;;;;;;25.23;13.27;;;8.40;71.70;;;;;;7375152;19;20023;-80
2022/12/03 19:06:42;;;;;;;28.02;13.02;;;8.30;71.50;;;;;;7377450;19;20082;-80
2022/12/03 19:09:11;;;;;;;24.10;13.88;;;8.30;71.40;;;;;;7394282;19;20018;-80
2022/12/03 19:11:40;;;;;;;27.25;14.05;;;8.40;71.50;;;;;;7375805;19;20180;-80
2022/12/03 19:14:10;;;;;;;28.83;14.38;;;8.40;71.60;;;;;;7375974;19;20027;-78
2022/12/03 19:16:40;;;;;;;32.78;15.50;;;8.40;71.70;;;;;;7369825;19;20596;-82
2022/12/03 19:19:13;;;;;;;27.52;13.57;;;8.50;71.60;;;;;;7371748;19;20363;-80
2022/12/03 19:21:42;;;;;;;35.35;14.77;;;8.40;71.10;;;;;;7371882;19;20073;-78
2022/12/03 19:24:11;;;;;;;31.15;14.30;;;8.40;71.50;;;;;;7394318;19;20041;-77
2022/12/03 19:26:40;;;;;;;32.70;14.05;;;8.40;71.50;;;;;;7375962;19;20027;-80
2022/12/03 19:29:09;;;;;;;36.45;15.32;;;8.50;71.30;;;;;;7378074;19;20396;-79
2022/12/03 19:31:38;;;;;;;25.25;14.02;;;8.50;71.50;;;;;;7371487;19;20014;-78
2022/12/03 19:34:07;;;;;;;26.58;13.48;;;8.50;71.50;;;;;;7375509;19;20496;-78
2022/12/03 19:36:38;;;;;;;26.95;13.95;;;8.60;71.30;;;;;;7389844;19;20022;-79
2022/12/03 19:39:06;;;;;;;;;;;8.60;71.60;;;;;;7392374;19;20501;-79
2022/12/03 19:41:35;;;;;;;31.35;14.27;;;8.60;71.60;;;;;;7375586;19;19918;-78
2022/12/03 19:44:04;;;;;;;26.13;13.18;;;8.60;71.30;;;;;;7373411;19;20021;-78
2022/12/03 19:46:33;;;;;;;28.90;13.93;;;8.60;71.30;;;;;;7375250;19;20018;-79
2022/12/03 19:49:01;;;;;;;28.98;14.38;;;8.60;71.20;;;;;;7373827;19;20006;-79
2022/12/03 19:51:30;;;;;;;28.92;14.68;;;8.60;70.90;;;;;;7401089;19;20035;-79
2022/12/03 19:54:02;;;;;;;25.75;14.20;;;8.60;70.80;;;;;;7374948;19;20445;-79
2022/12/03 19:56:31;;;;;;;;;;;8.60;70.90;;;;;;7371499;19;20470;-78
2022/12/03 19:59:00;;;;;;;31.10;14.88;;;8.60;70.80;;;;;;7372161;19;19922;-79
2022/12/03 20:01:30;;;;;;;27.60;14.18;;;8.60;70.80;;;;;;7370541;19;20014;-77
2022/12/03 20:04:01;;;;;;;32.35;15.10;;;8.60;70.90;;;;;;7375145;19;20010;-79
2022/12/03 20:06:32;;;;;;;32.08;15.75;;;8.60;70.70;;;;;;7396457;19;20691;-79
2022/12/03 20:09:06;;;;;;;32.72;15.77;;;8.60;71.00;;;;;;7375624;19;20447;-78
2022/12/03 20:11:36;;;;;;;31.75;14.43;;;8.60;70.90;;;;;;7374090;19;20035;-78
2022/12/03 20:14:09;;;;;;;29.23;14.32;;;8.60;70.80;;;;;;7371545;19;20314;-79
2022/12/03 20:16:38;;;;;;;39.95;18.02;;;8.60;70.80;;;;;;7370944;19;20018;-78
2022/12/03 20:19:11;;;;;;;34.00;15.35;;;8.60;70.60;;;;;;7371996;19;20014;-77
2022/12/03 20:21:42;;;;;;;33.78;15.88;;;8.50;70.50;;;;;;7371744;19;20018;-78
2022/12/03 20:24:16;;;;;;;28.23;14.98;;;8.60;70.60;;;;;;7391982;19;20018;-78
2022/12/03 20:26:45;;;;;;;30.42;14.50;;;8.60;70.80;;;;;;7372438;19;20045;-78
2022/12/03 20:29:14;;;;;;;27.75;15.27;;;8.60;70.50;;;;;;7371765;19;20006;-79
2022/12/03 20:31:43;;;;;;;36.22;16.60;;;8.60;70.20;;;;;;7371381;19;20506;-79
2022/12/03 20:34:12;;;;;;;33.67;15.77;;;8.60;70.50;;;;;;7374485;19;20146;-79
2022/12/03 20:36:42;;;;;;;33.00;14.88;;;8.60;70.70;;;;;;7371404;19;20015;-79
2022/12/03 20:39:14;;;;;;;35.63;15.90;;;8.60;70.60;;;;;;7393787;19;20531;-79
2022/12/03 20:41:43;;;;;;;35.55;16.65;;;8.70;70.90;;;;;;7373737;19;20275;-79
2022/12/03 20:44:12;;;;;;;34.08;15.98;;;8.70;70.60;;;;;;7373680;19;20035;-79
2022/12/03 20:46:41;;;;;;;34.55;16.67;;;8.70;70.40;;;;;;7372577;19;20056;-80
2022/12/03 20:49:10;;;;;;;32.67;16.00;;;8.70;70.40;;;;;;7373153;19;20015;-78
2022/12/03 20:51:39;;;;;;;32.47;15.45;;;8.70;70.30;;;;;;7376841;19;20022;-78
2022/12/03 20:54:08;;;;;;;31.35;15.50;;;8.60;70.20;;;;;;7413447;19;20006;-79
2022/12/03 20:56:40;;;;;;;34.00;14.88;;;8.60;70.30;;;;;;7381524;19;20035;-80
2022/12/03 20:59:12;;;;;;;31.35;15.43;;;8.60;70.50;;;;;;7373851;19;20019;-79
2022/12/03 21:01:41;;;;;;;38.30;19.83;;;8.60;70.80;;;;;;7373459;19;20014;-79
2022/12/03 21:04:12;;;;;;;40.90;20.25;;;8.60;70.60;;;;;;7373454;19;20023;-79
2022/12/03 21:06:41;;;;;;;33.22;15.32;;;8.60;70.40;;;;;;7369912;19;20149;-78
2022/12/03 21:09:11;;;;;;;34.45;14.40;;;8.60;70.50;;;;;;7390483;19;20026;-77
2022/12/03 21:11:44;;;;;;;28.77;14.93;;;8.50;70.00;;;;;;7372755;19;20011;-79
2022/12/03 21:14:13;;;;;;;32.38;16.55;;;8.50;70.40;;;;;;7371201;19;20039;-78
2022/12/03 21:16:47;;;;;;;31.85;14.98;;;8.50;70.50;;;;;;7370822;19;20019;-77
2022/12/03 21:19:20;;;;;;;39.00;16.27;;;8.50;70.60;;;;;;7368910;19;20018;-79
2022/12/03 21:21:53;;;;;;;34.85;15.68;;;8.60;70.80;;;;;;7370268;19;20043;-79
2022/12/03 21:24:26;;;;;;;31.05;15.45;;;8.60;71.30;;;;;;7392108;19;20014;-79
2022/12/03 21:26:58;;;;;;;32.72;15.57;;;8.60;70.20;;;;;;7369654;19;20018;-81
2022/12/03 21:29:34;;;;;;;33.28;15.82;;;8.50;70.20;;;;;;7370887;19;20015;-80
2022/12/03 21:32:12;;;;;;;30.30;15.15;;;8.50;70.20;;;;;;7373473;19;20007;-82
2022/12/03 21:34:47;;;;;;;33.78;15.05;;;8.50;70.60;;;;;;7367443;19;20014;-78
2022/12/03 21:37:51;;;;;;;32.33;15.07;;;8.50;70.50;;;;;;7366209;19;20022;-80
2022/12/03 21:40:25;;;;;;;42.17;15.40;;;8.50;70.50;;;;;;7370553;19;20014;-83
2022/12/03 21:43:03;;;;;;;34.88;16.05;;;8.50;70.30;;;;;;7370467;19;20028;-82
2022/12/03 21:45:39;;;;;;;34.10;15.88;;;8.40;70.40;;;;;;7389382;19;20013;-80
2022/12/03 21:48:13;;;;;;;35.80;14.95;;;8.50;70.50;;;;;;7371147;19;20022;-81
2022/12/03 21:50:42;;;;;;;29.65;14.70;;;8.50;70.40;;;;;;7367120;19;20015;-81
2022/12/03 21:53:11;;;;;;;39.00;16.13;;;8.50;70.30;;;;;;7372404;19;20014;-82
2022/12/03 21:55:41;;;;;;;32.92;15.38;;;8.30;70.40;;;;;;7368741;19;20022;-81
2022/12/03 21:58:16;;;;;;;33.20;15.48;;;8.30;70.60;;;;;;7372894;19;20014;-82
2022/12/03 22:00:45;;;;;;;34.22;15.23;;;8.40;70.80;;;;;;7378614;19;20333;-81
2022/12/03 22:03:14;;;;;;;32.60;15.18;;;8.40;70.80;;;;;;7409112;19;20878;-81
2022/12/03 22:05:43;;;;;;;35.45;16.42;;;8.40;71.00;;;;;;7388760;19;20014;-80
2022/12/03 22:08:12;;;;;;;33.28;15.20;;;8.40;70.90;;;;;;7375781;19;20084;-80
2022/12/03 22:10:42;;;;;;;36.53;16.80;;;8.50;70.90;;;;;;7370482;19;20482;-80
2022/12/03 22:13:11;;;;;;;37.63;16.10;;;8.50;70.60;;;;;;7379746;19;20119;-80
2022/12/03 22:15:42;;;;;;;33.45;15.48;;;8.50;70.80;;;;;;7375697;19;20125;-79
2022/12/03 22:18:11;;;;;;;38.63;16.35;;;8.50;70.70;;;;;;7400357;19;20025;-81
2022/12/03 22:20:42;;;;;;;38.03;15.88;;;8.50;70.30;;;;;;7377069;19;20040;-80
2022/12/03 22:23:11;;;;;;;34.50;16.60;;;8.50;70.50;;;;;;7379873;19;20105;-81
2022/12/03 22:25:40;;;;;;;32.97;16.13;;;8.50;70.50;;;;;;7379076;19;20021;-85
2022/12/03 22:28:09;;;;;;;38.58;16.88;;;8.50;70.80;;;;;;7378605;19;20035;-79
2022/12/03 22:30:43;;;;;;;43.08;16.17;;;8.50;70.90;;;;;;7373659;19;20026;-80
2022/12/03 22:33:12;;;;;;;41.35;16.85;;;8.30;70.40;;;;;;7398302;19;20441;-81
2022/12/03 22:35:41;;;;;;;39.88;16.48;;;8.40;70.70;;;;;;7378376;19;20026;-80
2022/12/03 22:38:10;;;;;;;39.92;15.98;;;8.40;70.80;;;;;;7376581;19;20445;-80
2022/12/03 22:40:41;;;;;;;37.20;16.33;;;8.50;70.80;;;;;;7380399;19;20399;-81
2022/12/03 22:43:10;;;;;;;33.75;16.48;;;8.50;70.80;;;;;;7385898;19;20019;-82
2022/12/03 22:45:38;;;;;;;40.60;17.70;;;8.30;70.50;;;;;;7377601;19;20034;-79
2022/12/03 22:48:10;;;;;;;41.45;15.68;;;8.40;70.90;;;;;;7400355;19;20014;-81
2022/12/03 22:50:43;;;;;;;37.20;17.15;;;8.20;70.50;;;;;;7380519;19;20082;-81
2022/12/03 22:53:12;;;;;;;35.85;16.40;;;8.20;70.90;;;;;;7379675;19;20123;-78
2022/12/03 22:55:42;;;;;;;39.10;17.02;;;8.30;70.90;;;;;;7377227;19;20050;-79
2022/12/03 22:58:12;;;;;;;37.95;17.67;;;8.30;71.00;;;;;;7375136;19;20509;-78
2022/12/03 23:00:42;;;;;;;40.95;17.35;;;8.30;70.80;;;;;;7371609;19;20059;-79
2022/12/03 23:03:14;;;;;;;30.67;15.70;;;8.30;70.90;;;;;;7398274;19;20029;-78
2022/12/03 23:05:43;;;;;;;41.05;17.35;;;8.30;70.80;;;;;;7374315;19;20089;-78
2022/12/03 23:08:15;;;;;;;33.95;15.30;;;8.30;70.90;;;;;;7375340;19;20017;-78
2022/12/03 23:10:46;;;;;;;34.58;15.48;;;8.30;70.70;;;;;;7375661;19;20014;-79
2022/12/03 23:13:19;;;;;;;40.70;16.70;;;8.40;70.60;;;;;;7374477;19;20395;-81
2022/12/03 23:15:52;;;;;;;38.15;16.98;;;8.40;70.80;;;;;;7373455;19;20113;-84
2022/12/03 23:18:24;;;;;;;38.30;16.52;;;8.40;70.80;;;;;;7395109;19;20022;-78
2022/12/03 23:20:55;;;;;;;37.85;16.30;;;8.50;70.80;;;;;;7374542;19;20019;-77
2022/12/03 23:23:27;;;;;;;36.15;16.05;;;8.50;70.60;;;;;;7371871;19;20014;-77
2022/12/03 23:26:00;;;;;;;33.17;15.45;;;8.50;70.20;;;;;;7373016;19;20113;-77
2022/12/03 23:28:30;;;;;;;36.45;16.02;;;8.50;70.10;;;;;;7374336;19;20074;-77
2022/12/03 23:30:59;;;;;;;37.77;16.60;;;8.50;69.90;;;;;;7371145;19;20086;-78
2022/12/03 23:33:31;;;;;;;34.75;15.55;;;8.40;70.00;;;;;;7398504;19;20052;-78
2022/12/03 23:36:00;;;;;;;37.03;17.20;;;8.50;70.20;;;;;;7373950;19;20336;-77
2022/12/03 23:38:29;;;;;;;37.38;16.77;;;8.50;70.20;;;;;;7374989;19;20030;-78
2022/12/03 23:40:57;;;;;;;37.30;16.98;;;8.50;70.00;;;;;;7373330;19;20015;-77
2022/12/03 23:43:26;;;;;;;35.58;15.38;;;8.50;69.80;;;;;;7373257;19;20010;-77
2022/12/03 23:45:55;;;;;;;38.67;17.60;;;8.50;69.90;;;;;;7372117;19;20330;-77
2022/12/03 23:48:24;;;;;;;33.47;15.30;;;8.50;70.00;;;;;;7395021;19;20022;-77
2022/12/03 23:50:55;;;;;;;33.60;15.52;;;8.50;69.90;;;;;;7371809;19;20018;-77
2022/12/03 23:53:24;;;;;;;;;;;8.50;69.60;;;;;;7374914;19;20082;-77
2022/12/03 23:55:53;;;;;;;33.22;14.95;;;8.60;69.70;;;;;;7373803;19;19922;-79
2022/12/03 23:58:22;;;;;;;35.30;16.38;;;8.50;69.40;;;;;;7374405;19;20038;-77
